sensor_id;sensor_type;location;lat;lon;timestamp;P1;durP1;ratioP1;P2;durP2;ratioP2
45402;SDS011;47427;51.976;5.326;2022-11-20T00:01:45;27.35;;;17.30;;
45402;SDS011;47427;51.976;5.326;2022-11-20T00:05:07;28.88;;;17.85;;
45402;SDS011;47427;51.976;5.326;2022-11-20T00:08:29;25.25;;;16.58;;
45402;SDS011;47427;51.976;5.326;2022-11-20T00:11:51;28.17;;;16.45;;
45402;SDS011;47427;51.976;5.326;2022-11-20T00:15:12;26.77;;;17.00;;
45402;SDS011;47427;51.976;5.326;2022-11-20T00:18:34;25.55;;;17.50;;
45402;SDS011;47427;51.976;5.326;2022-11-20T00:21:57;29.88;;;17.42;;
45402;SDS011;47427;51.976;5.326;2022-11-20T00:25:18;26.77;;;17.35;;
45402;SDS011;47427;51.976;5.326;2022-11-20T00:28:40;25.45;;;16.27;;
45402;SDS011;47427;51.976;5.326;2022-11-20T00:32:03;28.58;;;16.85;;
45402;SDS011;47427;51.976;5.326;2022-11-20T00:35:24;29.08;;;17.80;;
45402;SDS011;47427;51.976;5.326;2022-11-20T00:38:46;25.90;;;17.33;;
45402;SDS011;47427;51.976;5.326;2022-11-20T00:42:11;25.75;;;17.13;;
45402;SDS011;47427;51.976;5.326;2022-11-20T00:45:33;27.13;;;16.52;;
45402;SDS011;47427;51.976;5.326;2022-11-20T00:48:54;26.25;;;16.42;;
45402;SDS011;47427;51.976;5.326;2022-11-20T00:52:16;28.30;;;17.63;;
45402;SDS011;47427;51.976;5.326;2022-11-20T00:55:38;27.02;;;16.15;;
45402;SDS011;47427;51.976;5.326;2022-11-20T00:59:00;27.65;;;16.45;;
45402;SDS011;47427;51.976;5.326;2022-11-20T01:02:22;32.78;;;17.25;;
45402;SDS011;47427;51.976;5.326;2022-11-20T01:05:43;32.35;;;18.40;;
45402;SDS011;47427;51.976;5.326;2022-11-20T01:09:06;31.02;;;19.02;;
45402;SDS011;47427;51.976;5.326;2022-11-20T01:12:31;27.00;;;16.48;;
45402;SDS011;47427;51.976;5.326;2022-11-20T01:15:53;28.40;;;17.75;;
45402;SDS011;47427;51.976;5.326;2022-11-20T01:19:15;28.08;;;16.38;;
45402;SDS011;47427;51.976;5.326;2022-11-20T01:22:43;29.65;;;15.88;;
45402;SDS011;47427;51.976;5.326;2022-11-20T01:26:06;27.67;;;16.60;;
45402;SDS011;47427;51.976;5.326;2022-11-20T01:29:33;26.92;;;16.83;;
45402;SDS011;47427;51.976;5.326;2022-11-20T01:32:55;28.25;;;17.02;;
45402;SDS011;47427;51.976;5.326;2022-11-20T01:36:17;24.77;;;15.50;;
45402;SDS011;47427;51.976;5.326;2022-11-20T01:39:41;29.13;;;17.38;;
45402;SDS011;47427;51.976;5.326;2022-11-20T01:43:10;25.80;;;16.10;;
45402;SDS011;47427;51.976;5.326;2022-11-20T01:46:56;30.48;;;16.38;;
45402;SDS011;47427;51.976;5.326;2022-11-20T01:50:24;23.60;;;15.13;;
45402;SDS011;47427;51.976;5.326;2022-11-20T01:53:50;29.13;;;16.25;;
45402;SDS011;47427;51.976;5.326;2022-11-20T01:57:15;28.77;;;16.73;;
45402;SDS011;47427;51.976;5.326;2022-11-20T02:00:39;28.08;;;15.68;;
45402;SDS011;47427;51.976;5.326;2022-11-20T02:04:01;28.05;;;17.55;;
45402;SDS011;47427;51.976;5.326;2022-11-20T02:07:23;27.42;;;16.88;;
45402;SDS011;47427;51.976;5.326;2022-11-20T02:10:48;27.27;;;16.65;;
45402;SDS011;47427;51.976;5.326;2022-11-20T02:14:34;27.48;;;15.98;;
45402;SDS011;47427;51.976;5.326;2022-11-20T02:17:56;29.20;;;16.88;;
45402;SDS011;47427;51.976;5.326;2022-11-20T02:25:00;28.55;;;16.25;;
45402;SDS011;47427;51.976;5.326;2022-11-20T02:28:24;31.92;;;17.02;;
45402;SDS011;47427;51.976;5.326;2022-11-20T02:31:46;32.55;;;16.48;;
45402;SDS011;47427;51.976;5.326;2022-11-20T02:38:31;26.70;;;16.33;;
45402;SDS011;47427;51.976;5.326;2022-11-20T02:41:53;30.10;;;16.55;;
45402;SDS011;47427;51.976;5.326;2022-11-20T02:45:16;28.52;;;17.05;;
45402;SDS011;47427;51.976;5.326;2022-11-20T02:48:38;27.08;;;16.55;;
45402;SDS011;47427;51.976;5.326;2022-11-20T02:51:59;26.98;;;16.65;;
45402;SDS011;47427;51.976;5.326;2022-11-20T02:55:21;31.60;;;17.70;;
45402;SDS011;47427;51.976;5.326;2022-11-20T02:58:42;30.83;;;16.55;;
45402;SDS011;47427;51.976;5.326;2022-11-20T03:02:07;27.55;;;16.92;;
45402;SDS011;47427;51.976;5.326;2022-11-20T03:05:28;27.73;;;17.45;;
45402;SDS011;47427;51.976;5.326;2022-11-20T03:08:50;29.92;;;18.88;;
45402;SDS011;47427;51.976;5.326;2022-11-20T03:12:11;32.75;;;17.52;;
45402;SDS011;47427;51.976;5.326;2022-11-20T03:15:33;30.02;;;16.75;;
45402;SDS011;47427;51.976;5.326;2022-11-20T03:18:57;33.17;;;17.92;;
45402;SDS011;47427;51.976;5.326;2022-11-20T03:22:18;32.17;;;17.48;;
45402;SDS011;47427;51.976;5.326;2022-11-20T03:25:40;27.02;;;16.35;;
45402;SDS011;47427;51.976;5.326;2022-11-20T03:29:03;28.52;;;16.38;;
45402;SDS011;47427;51.976;5.326;2022-11-20T03:32:25;27.55;;;16.45;;
45402;SDS011;47427;51.976;5.326;2022-11-20T03:35:47;26.77;;;16.40;;
45402;SDS011;47427;51.976;5.326;2022-11-20T03:39:10;28.05;;;17.58;;
45402;SDS011;47427;51.976;5.326;2022-11-20T03:42:32;27.42;;;17.20;;
45402;SDS011;47427;51.976;5.326;2022-11-20T03:46:07;28.90;;;17.23;;
45402;SDS011;47427;51.976;5.326;2022-11-20T03:49:29;28.52;;;16.83;;
45402;SDS011;47427;51.976;5.326;2022-11-20T03:52:50;26.50;;;16.75;;
45402;SDS011;47427;51.976;5.326;2022-11-20T03:56:13;25.67;;;17.02;;
45402;SDS011;47427;51.976;5.326;2022-11-20T03:59:37;29.17;;;18.43;;
45402;SDS011;47427;51.976;5.326;2022-11-20T04:03:00;26.92;;;16.85;;
45402;SDS011;47427;51.976;5.326;2022-11-20T04:06:23;31.73;;;18.63;;
45402;SDS011;47427;51.976;5.326;2022-11-20T04:09:47;30.02;;;16.80;;
45402;SDS011;47427;51.976;5.326;2022-11-20T04:13:09;27.30;;;16.27;;
45402;SDS011;47427;51.976;5.326;2022-11-20T04:16:31;29.95;;;17.60;;
45402;SDS011;47427;51.976;5.326;2022-11-20T04:19:55;27.47;;;16.00;;
45402;SDS011;47427;51.976;5.326;2022-11-20T04:23:16;31.45;;;17.67;;
45402;SDS011;47427;51.976;5.326;2022-11-20T04:26:38;32.60;;;17.50;;
45402;SDS011;47427;51.976;5.326;2022-11-20T04:30:00;27.40;;;16.15;;
45402;SDS011;47427;51.976;5.326;2022-11-20T04:33:22;25.73;;;16.30;;
45402;SDS011;47427;51.976;5.326;2022-11-20T04:36:43;29.10;;;17.00;;
45402;SDS011;47427;51.976;5.326;2022-11-20T04:40:05;27.92;;;15.90;;
45402;SDS011;47427;51.976;5.326;2022-11-20T04:43:27;28.70;;;17.50;;
45402;SDS011;47427;51.976;5.326;2022-11-20T04:46:49;28.13;;;16.90;;
45402;SDS011;47427;51.976;5.326;2022-11-20T04:50:11;31.73;;;16.55;;
45402;SDS011;47427;51.976;5.326;2022-11-20T04:53:32;28.98;;;16.70;;
45402;SDS011;47427;51.976;5.326;2022-11-20T04:56:55;34.17;;;18.25;;
45402;SDS011;47427;51.976;5.326;2022-11-20T05:00:17;30.83;;;17.83;;
45402;SDS011;47427;51.976;5.326;2022-11-20T05:03:40;29.38;;;17.15;;
45402;SDS011;47427;51.976;5.326;2022-11-20T05:07:03;29.30;;;16.13;;
45402;SDS011;47427;51.976;5.326;2022-11-20T05:10:25;30.55;;;18.02;;
45402;SDS011;47427;51.976;5.326;2022-11-20T05:13:47;34.97;;;16.83;;
45402;SDS011;47427;51.976;5.326;2022-11-20T05:17:11;28.85;;;17.05;;
45402;SDS011;47427;51.976;5.326;2022-11-20T05:20:35;34.25;;;17.50;;
45402;SDS011;47427;51.976;5.326;2022-11-20T05:23:56;32.25;;;17.98;;
45402;SDS011;47427;51.976;5.326;2022-11-20T05:27:18;27.50;;;17.35;;
45402;SDS011;47427;51.976;5.326;2022-11-20T05:30:39;28.17;;;16.08;;
45402;SDS011;47427;51.976;5.326;2022-11-20T05:34:01;27.95;;;17.65;;
45402;SDS011;47427;51.976;5.326;2022-11-20T05:37:22;29.70;;;17.60;;
45402;SDS011;47427;51.976;5.326;2022-11-20T05:40:44;31.08;;;17.13;;
45402;SDS011;47427;51.976;5.326;2022-11-20T05:44:05;28.23;;;17.33;;
45402;SDS011;47427;51.976;5.326;2022-11-20T05:47:28;29.27;;;15.50;;
45402;SDS011;47427;51.976;5.326;2022-11-20T05:50:53;26.25;;;16.45;;
45402;SDS011;47427;51.976;5.326;2022-11-20T05:54:17;28.77;;;17.42;;
45402;SDS011;47427;51.976;5.326;2022-11-20T05:58:00;26.73;;;16.27;;
45402;SDS011;47427;51.976;5.326;2022-11-20T06:01:22;27.52;;;16.75;;
45402;SDS011;47427;51.976;5.326;2022-11-20T06:04:46;29.52;;;16.98;;
45402;SDS011;47427;51.976;5.326;2022-11-20T06:08:09;30.35;;;17.27;;
45402;SDS011;47427;51.976;5.326;2022-11-20T06:11:51;28.95;;;16.75;;
45402;SDS011;47427;51.976;5.326;2022-11-20T06:15:12;31.00;;;18.35;;
45402;SDS011;47427;51.976;5.326;2022-11-20T06:18:34;26.25;;;15.98;;
45402;SDS011;47427;51.976;5.326;2022-11-20T06:21:56;27.90;;;16.25;;
45402;SDS011;47427;51.976;5.326;2022-11-20T06:25:17;31.55;;;16.52;;
45402;SDS011;47427;51.976;5.326;2022-11-20T06:28:39;29.85;;;16.92;;
45402;SDS011;47427;51.976;5.326;2022-11-20T06:32:00;28.08;;;16.55;;
45402;SDS011;47427;51.976;5.326;2022-11-20T06:35:23;28.30;;;16.67;;
45402;SDS011;47427;51.976;5.326;2022-11-20T06:38:44;29.48;;;16.55;;
45402;SDS011;47427;51.976;5.326;2022-11-20T06:42:06;34.72;;;18.73;;
45402;SDS011;47427;51.976;5.326;2022-11-20T06:45:28;30.27;;;17.50;;
45402;SDS011;47427;51.976;5.326;2022-11-20T06:48:50;33.17;;;18.25;;
45402;SDS011;47427;51.976;5.326;2022-11-20T06:52:13;31.52;;;19.30;;
45402;SDS011;47427;51.976;5.326;2022-11-20T06:55:34;32.40;;;17.80;;
45402;SDS011;47427;51.976;5.326;2022-11-20T06:59:06;32.67;;;17.50;;
45402;SDS011;47427;51.976;5.326;2022-11-20T07:02:28;31.75;;;17.98;;
45402;SDS011;47427;51.976;5.326;2022-11-20T07:09:36;33.25;;;20.02;;
45402;SDS011;47427;51.976;5.326;2022-11-20T07:12:59;35.60;;;20.60;;
45402;SDS011;47427;51.976;5.326;2022-11-20T07:16:21;34.95;;;20.85;;
45402;SDS011;47427;51.976;5.326;2022-11-20T07:19:44;31.92;;;19.63;;
45402;SDS011;47427;51.976;5.326;2022-11-20T07:23:08;33.15;;;19.67;;
45402;SDS011;47427;51.976;5.326;2022-11-20T07:26:29;34.13;;;19.42;;
45402;SDS011;47427;51.976;5.326;2022-11-20T07:29:51;69.97;;;37.28;;
45402;SDS011;47427;51.976;5.326;2022-11-20T07:33:13;138.32;;;80.47;;
45402;SDS011;47427;51.976;5.326;2022-11-20T07:36:34;89.78;;;55.05;;
45402;SDS011;47427;51.976;5.326;2022-11-20T07:39:57;55.45;;;33.35;;
45402;SDS011;47427;51.976;5.326;2022-11-20T07:43:18;33.90;;;20.27;;
45402;SDS011;47427;51.976;5.326;2022-11-20T07:46:41;53.20;;;36.10;;
45402;SDS011;47427;51.976;5.326;2022-11-20T07:50:03;31.00;;;20.25;;
45402;SDS011;47427;51.976;5.326;2022-11-20T07:53:50;36.95;;;24.85;;
45402;SDS011;47427;51.976;5.326;2022-11-20T07:57:15;30.02;;;20.75;;
45402;SDS011;47427;51.976;5.326;2022-11-20T08:00:37;43.30;;;23.75;;
45402;SDS011;47427;51.976;5.326;2022-11-20T08:03:58;39.72;;;23.02;;
45402;SDS011;47427;51.976;5.326;2022-11-20T08:07:20;35.80;;;21.08;;
45402;SDS011;47427;51.976;5.326;2022-11-20T08:10:41;31.67;;;18.17;;
45402;SDS011;47427;51.976;5.326;2022-11-20T08:14:03;30.83;;;19.25;;
45402;SDS011;47427;51.976;5.326;2022-11-20T08:17:34;30.88;;;19.80;;
45402;SDS011;47427;51.976;5.326;2022-11-20T08:21:21;31.15;;;18.73;;
45402;SDS011;47427;51.976;5.326;2022-11-20T08:24:44;31.20;;;19.95;;
45402;SDS011;47427;51.976;5.326;2022-11-20T08:28:07;34.55;;;19.98;;
45402;SDS011;47427;51.976;5.326;2022-11-20T08:31:30;31.00;;;19.85;;
45402;SDS011;47427;51.976;5.326;2022-11-20T08:34:52;31.45;;;19.58;;
45402;SDS011;47427;51.976;5.326;2022-11-20T08:38:14;31.42;;;20.52;;
45402;SDS011;47427;51.976;5.326;2022-11-20T08:41:36;33.47;;;20.17;;
45402;SDS011;47427;51.976;5.326;2022-11-20T08:44:57;32.00;;;19.08;;
45402;SDS011;47427;51.976;5.326;2022-11-20T08:48:19;33.17;;;20.65;;
45402;SDS011;47427;51.976;5.326;2022-11-20T08:51:40;30.00;;;20.10;;
45402;SDS011;47427;51.976;5.326;2022-11-20T08:55:03;29.80;;;19.10;;
45402;SDS011;47427;51.976;5.326;2022-11-20T08:58:26;32.97;;;19.92;;
45402;SDS011;47427;51.976;5.326;2022-11-20T09:01:48;34.53;;;22.10;;
45402;SDS011;47427;51.976;5.326;2022-11-20T09:05:09;37.90;;;22.83;;
45402;SDS011;47427;51.976;5.326;2022-11-20T09:08:31;32.55;;;22.83;;
45402;SDS011;47427;51.976;5.326;2022-11-20T09:11:53;33.80;;;22.23;;
45402;SDS011;47427;51.976;5.326;2022-11-20T09:15:15;32.90;;;19.98;;
45402;SDS011;47427;51.976;5.326;2022-11-20T09:18:38;34.28;;;21.40;;
45402;SDS011;47427;51.976;5.326;2022-11-20T09:22:01;33.95;;;20.52;;
45402;SDS011;47427;51.976;5.326;2022-11-20T09:25:23;33.22;;;21.67;;
45402;SDS011;47427;51.976;5.326;2022-11-20T09:28:46;34.53;;;20.95;;
45402;SDS011;47427;51.976;5.326;2022-11-20T09:32:09;36.40;;;20.60;;
45402;SDS011;47427;51.976;5.326;2022-11-20T09:35:32;32.30;;;21.70;;
45402;SDS011;47427;51.976;5.326;2022-11-20T09:38:56;35.03;;;22.23;;
45402;SDS011;47427;51.976;5.326;2022-11-20T09:49:51;31.05;;;20.52;;
45402;SDS011;47427;51.976;5.326;2022-11-20T09:57:40;30.53;;;19.47;;
45402;SDS011;47427;51.976;5.326;2022-11-20T10:01:14;38.33;;;23.00;;
45402;SDS011;47427;51.976;5.326;2022-11-20T10:04:39;32.78;;;18.80;;
45402;SDS011;47427;51.976;5.326;2022-11-20T10:08:13;30.67;;;21.63;;
45402;SDS011;47427;51.976;5.326;2022-11-20T10:24:07;40.83;;;23.85;;
45402;SDS011;47427;51.976;5.326;2022-11-20T10:31:29;32.95;;;22.17;;
45402;SDS011;47427;51.976;5.326;2022-11-20T10:35:01;32.92;;;22.20;;
45402;SDS011;47427;51.976;5.326;2022-11-20T10:42:31;37.85;;;24.30;;
45402;SDS011;47427;51.976;5.326;2022-11-20T10:46:44;35.03;;;22.80;;
45402;SDS011;47427;51.976;5.326;2022-11-20T10:50:09;35.85;;;23.77;;
45402;SDS011;47427;51.976;5.326;2022-11-20T10:53:40;39.45;;;25.30;;
45402;SDS011;47427;51.976;5.326;2022-11-20T10:58:10;40.40;;;26.17;;
45402;SDS011;47427;51.976;5.326;2022-11-20T11:02:19;40.78;;;25.85;;
45402;SDS011;47427;51.976;5.326;2022-11-20T11:06:32;38.58;;;24.52;;
45402;SDS011;47427;51.976;5.326;2022-11-20T11:09:33;40.92;;;25.67;;
45402;SDS011;47427;51.976;5.326;2022-11-20T11:13:00;46.42;;;26.75;;
45402;SDS011;47427;51.976;5.326;2022-11-20T11:16:23;42.92;;;26.90;;
45402;SDS011;47427;51.976;5.326;2022-11-20T11:19:57;46.65;;;27.15;;
45402;SDS011;47427;51.976;5.326;2022-11-20T11:23:39;41.20;;;27.58;;
45402;SDS011;47427;51.976;5.326;2022-11-20T11:27:03;50.88;;;29.15;;
45402;SDS011;47427;51.976;5.326;2022-11-20T11:30:41;47.10;;;29.15;;
45402;SDS011;47427;51.976;5.326;2022-11-20T11:34:10;45.22;;;27.65;;
45402;SDS011;47427;51.976;5.326;2022-11-20T11:37:35;45.65;;;27.65;;
45402;SDS011;47427;51.976;5.326;2022-11-20T11:40:59;49.47;;;29.00;;
45402;SDS011;47427;51.976;5.326;2022-11-20T11:44:23;52.50;;;30.33;;
45402;SDS011;47427;51.976;5.326;2022-11-20T11:48:11;51.67;;;28.80;;
45402;SDS011;47427;51.976;5.326;2022-11-20T11:51:38;48.63;;;29.70;;
45402;SDS011;47427;51.976;5.326;2022-11-20T11:55:26;52.63;;;30.48;;
45402;SDS011;47427;51.976;5.326;2022-11-20T11:59:21;54.25;;;30.48;;
45402;SDS011;47427;51.976;5.326;2022-11-20T12:03:16;51.30;;;31.13;;
45402;SDS011;47427;51.976;5.326;2022-11-20T12:06:48;54.17;;;29.10;;
45402;SDS011;47427;51.976;5.326;2022-11-20T12:10:22;49.25;;;29.75;;
45402;SDS011;47427;51.976;5.326;2022-11-20T12:13:57;51.38;;;29.63;;
45402;SDS011;47427;51.976;5.326;2022-11-20T12:17:50;51.83;;;30.48;;
45402;SDS011;47427;51.976;5.326;2022-11-20T12:21:45;56.03;;;29.98;;
45402;SDS011;47427;51.976;5.326;2022-11-20T12:25:24;56.65;;;31.08;;
45402;SDS011;47427;51.976;5.326;2022-11-20T12:36:18;49.90;;;29.58;;
45402;SDS011;47427;51.976;5.326;2022-11-20T12:40:12;59.08;;;29.63;;
45402;SDS011;47427;51.976;5.326;2022-11-20T12:44:01;49.47;;;30.85;;
45402;SDS011;47427;51.976;5.326;2022-11-20T12:48:30;54.15;;;29.23;;
45402;SDS011;47427;51.976;5.326;2022-11-20T12:52:37;51.95;;;30.88;;
45402;SDS011;47427;51.976;5.326;2022-11-20T13:00:12;64.82;;;34.75;;
45402;SDS011;47427;51.976;5.326;2022-11-20T13:03:47;59.75;;;32.70;;
45402;SDS011;47427;51.976;5.326;2022-11-20T13:07:17;58.92;;;32.78;;
45402;SDS011;47427;51.976;5.326;2022-11-20T13:16:08;50.92;;;31.13;;
45402;SDS011;47427;51.976;5.326;2022-11-20T13:19:37;54.30;;;31.65;;
45402;SDS011;47427;51.976;5.326;2022-11-20T13:22:59;56.20;;;32.45;;
45402;SDS011;47427;51.976;5.326;2022-11-20T13:26:22;60.42;;;35.13;;
45402;SDS011;47427;51.976;5.326;2022-11-20T13:29:44;60.88;;;32.35;;
45402;SDS011;47427;51.976;5.326;2022-11-20T13:33:27;63.65;;;35.33;;
45402;SDS011;47427;51.976;5.326;2022-11-20T13:36:57;56.05;;;33.03;;
45402;SDS011;47427;51.976;5.326;2022-11-20T13:40:24;58.03;;;32.65;;
45402;SDS011;47427;51.976;5.326;2022-11-20T13:43:46;59.75;;;35.40;;
45402;SDS011;47427;51.976;5.326;2022-11-20T13:47:25;69.53;;;35.72;;
45402;SDS011;47427;51.976;5.326;2022-11-20T13:55:16;65.75;;;35.60;;
45402;SDS011;47427;51.976;5.326;2022-11-20T14:06:30;77.72;;;38.83;;
45402;SDS011;47427;51.976;5.326;2022-11-20T14:09:59;68.38;;;36.58;;
45402;SDS011;47427;51.976;5.326;2022-11-20T14:13:20;73.22;;;37.50;;
45402;SDS011;47427;51.976;5.326;2022-11-20T14:16:42;70.13;;;36.97;;
45402;SDS011;47427;51.976;5.326;2022-11-20T14:20:06;66.03;;;37.35;;
45402;SDS011;47427;51.976;5.326;2022-11-20T14:24:03;77.78;;;38.67;;
45402;SDS011;47427;51.976;5.326;2022-11-20T14:27:42;70.28;;;39.55;;
45402;SDS011;47427;51.976;5.326;2022-11-20T14:31:22;67.47;;;37.28;;
45402;SDS011;47427;51.976;5.326;2022-11-20T14:38:12;70.45;;;39.22;;
45402;SDS011;47427;51.976;5.326;2022-11-20T14:41:37;68.35;;;37.47;;
45402;SDS011;47427;51.976;5.326;2022-11-20T14:44:59;70.03;;;37.08;;
45402;SDS011;47427;51.976;5.326;2022-11-20T14:48:28;69.38;;;35.03;;
45402;SDS011;47427;51.976;5.326;2022-11-20T14:52:15;68.70;;;37.70;;
45402;SDS011;47427;51.976;5.326;2022-11-20T14:55:42;77.40;;;37.33;;
45402;SDS011;47427;51.976;5.326;2022-11-20T14:59:04;63.15;;;36.45;;
45402;SDS011;47427;51.976;5.326;2022-11-20T15:02:26;67.85;;;37.20;;
45402;SDS011;47427;51.976;5.326;2022-11-20T15:05:50;71.25;;;37.72;;
45402;SDS011;47427;51.976;5.326;2022-11-20T15:09:13;69.57;;;39.25;;
45402;SDS011;47427;51.976;5.326;2022-11-20T15:12:47;75.75;;;37.33;;
45402;SDS011;47427;51.976;5.326;2022-11-20T15:16:22;70.28;;;37.45;;
45402;SDS011;47427;51.976;5.326;2022-11-20T15:19:45;71.40;;;38.40;;
45402;SDS011;47427;51.976;5.326;2022-11-20T15:23:12;67.95;;;35.60;;
45402;SDS011;47427;51.976;5.326;2022-11-20T15:26:36;69.03;;;39.22;;
45402;SDS011;47427;51.976;5.326;2022-11-20T15:30:00;66.68;;;37.00;;
45402;SDS011;47427;51.976;5.326;2022-11-20T15:33:22;66.75;;;37.08;;
45402;SDS011;47427;51.976;5.326;2022-11-20T15:36:44;70.60;;;39.75;;
45402;SDS011;47427;51.976;5.326;2022-11-20T15:40:06;63.55;;;35.28;;
45402;SDS011;47427;51.976;5.326;2022-11-20T15:43:29;76.20;;;41.10;;
45402;SDS011;47427;51.976;5.326;2022-11-20T15:46:50;68.38;;;37.10;;
45402;SDS011;47427;51.976;5.326;2022-11-20T15:50:12;64.35;;;35.95;;
45402;SDS011;47427;51.976;5.326;2022-11-20T15:53:39;62.85;;;35.25;;
45402;SDS011;47427;51.976;5.326;2022-11-20T15:57:02;63.47;;;34.45;;
45402;SDS011;47427;51.976;5.326;2022-11-20T16:00:24;73.03;;;37.72;;
45402;SDS011;47427;51.976;5.326;2022-11-20T16:03:46;65.38;;;36.85;;
45402;SDS011;47427;51.976;5.326;2022-11-20T16:07:08;67.35;;;35.42;;
45402;SDS011;47427;51.976;5.326;2022-11-20T16:10:30;67.45;;;36.47;;
45402;SDS011;47427;51.976;5.326;2022-11-20T16:13:53;63.50;;;36.42;;
45402;SDS011;47427;51.976;5.326;2022-11-20T16:17:35;69.70;;;35.95;;
45402;SDS011;47427;51.976;5.326;2022-11-20T16:21:10;64.05;;;37.80;;
45402;SDS011;47427;51.976;5.326;2022-11-20T16:24:35;70.68;;;38.95;;
45402;SDS011;47427;51.976;5.326;2022-11-20T16:27:57;81.60;;;45.72;;
45402;SDS011;47427;51.976;5.326;2022-11-20T16:31:38;70.75;;;37.80;;
45402;SDS011;47427;51.976;5.326;2022-11-20T16:35:01;63.65;;;36.20;;
45402;SDS011;47427;51.976;5.326;2022-11-20T16:38:25;64.25;;;37.70;;
45402;SDS011;47427;51.976;5.326;2022-11-20T16:41:47;57.47;;;33.42;;
45402;SDS011;47427;51.976;5.326;2022-11-20T16:45:10;70.15;;;38.70;;
45402;SDS011;47427;51.976;5.326;2022-11-20T16:48:33;62.38;;;35.28;;
45402;SDS011;47427;51.976;5.326;2022-11-20T16:51:55;59.83;;;33.63;;
45402;SDS011;47427;51.976;5.326;2022-11-20T16:55:18;65.82;;;36.60;;
45402;SDS011;47427;51.976;5.326;2022-11-20T16:58:41;55.28;;;31.13;;
45402;SDS011;47427;51.976;5.326;2022-11-20T17:02:05;59.83;;;34.53;;
45402;SDS011;47427;51.976;5.326;2022-11-20T17:05:31;58.58;;;32.97;;
45402;SDS011;47427;51.976;5.326;2022-11-20T17:08:56;64.28;;;34.13;;
45402;SDS011;47427;51.976;5.326;2022-11-20T17:12:19;68.18;;;37.90;;
45402;SDS011;47427;51.976;5.326;2022-11-20T17:15:42;66.72;;;35.85;;
45402;SDS011;47427;51.976;5.326;2022-11-20T17:19:04;60.75;;;35.28;;
45402;SDS011;47427;51.976;5.326;2022-11-20T17:22:27;53.28;;;32.17;;
45402;SDS011;47427;51.976;5.326;2022-11-20T17:25:50;59.20;;;35.15;;
45402;SDS011;47427;51.976;5.326;2022-11-20T17:29:14;44.50;;;27.98;;
45402;SDS011;47427;51.976;5.326;2022-11-20T17:32:38;46.97;;;28.75;;
45402;SDS011;47427;51.976;5.326;2022-11-20T17:36:07;47.05;;;30.23;;
45402;SDS011;47427;51.976;5.326;2022-11-20T17:39:31;46.10;;;27.58;;
45402;SDS011;47427;51.976;5.326;2022-11-20T17:42:54;50.80;;;29.80;;
45402;SDS011;47427;51.976;5.326;2022-11-20T17:46:20;50.17;;;31.65;;
45402;SDS011;47427;51.976;5.326;2022-11-20T17:49:45;50.10;;;30.55;;
45402;SDS011;47427;51.976;5.326;2022-11-20T17:53:08;46.63;;;28.17;;
45402;SDS011;47427;51.976;5.326;2022-11-20T17:56:31;58.22;;;33.10;;
45402;SDS011;47427;51.976;5.326;2022-11-20T18:00:32;48.75;;;31.33;;
45402;SDS011;47427;51.976;5.326;2022-11-20T18:03:57;55.25;;;32.67;;
45402;SDS011;47427;51.976;5.326;2022-11-20T18:07:20;43.67;;;29.40;;
45402;SDS011;47427;51.976;5.326;2022-11-20T18:10:43;42.35;;;28.17;;
45402;SDS011;47427;51.976;5.326;2022-11-20T18:14:06;42.85;;;27.55;;
45402;SDS011;47427;51.976;5.326;2022-11-20T18:17:52;47.50;;;31.73;;
45402;SDS011;47427;51.976;5.326;2022-11-20T18:21:14;40.40;;;28.02;;
45402;SDS011;47427;51.976;5.326;2022-11-20T18:24:36;41.85;;;26.73;;
45402;SDS011;47427;51.976;5.326;2022-11-20T18:27:59;40.78;;;25.58;;
45402;SDS011;47427;51.976;5.326;2022-11-20T18:31:20;39.92;;;25.63;;
45402;SDS011;47427;51.976;5.326;2022-11-20T18:34:42;39.00;;;25.90;;
45402;SDS011;47427;51.976;5.326;2022-11-20T18:38:04;39.17;;;27.15;;
45402;SDS011;47427;51.976;5.326;2022-11-20T18:41:27;35.88;;;25.63;;
45402;SDS011;47427;51.976;5.326;2022-11-20T18:45:09;41.13;;;26.95;;
45402;SDS011;47427;51.976;5.326;2022-11-20T18:48:31;54.75;;;33.63;;
45402;SDS011;47427;51.976;5.326;2022-11-20T18:51:53;43.08;;;30.63;;
45402;SDS011;47427;51.976;5.326;2022-11-20T18:55:15;42.58;;;30.52;;
45402;SDS011;47427;51.976;5.326;2022-11-20T18:58:36;45.30;;;30.35;;
45402;SDS011;47427;51.976;5.326;2022-11-20T19:02:00;42.95;;;30.05;;
45402;SDS011;47427;51.976;5.326;2022-11-20T19:05:22;45.28;;;31.88;;
45402;SDS011;47427;51.976;5.326;2022-11-20T19:08:43;45.35;;;31.33;;
45402;SDS011;47427;51.976;5.326;2022-11-20T19:12:06;52.88;;;35.15;;
45402;SDS011;47427;51.976;5.326;2022-11-20T19:15:29;49.40;;;33.20;;
45402;SDS011;47427;51.976;5.326;2022-11-20T19:18:53;44.58;;;32.25;;
45402;SDS011;47427;51.976;5.326;2022-11-20T19:22:15;40.40;;;27.95;;
45402;SDS011;47427;51.976;5.326;2022-11-20T19:25:36;39.60;;;29.52;;
45402;SDS011;47427;51.976;5.326;2022-11-20T19:28:58;38.90;;;29.65;;
45402;SDS011;47427;51.976;5.326;2022-11-20T19:32:19;47.25;;;31.38;;
45402;SDS011;47427;51.976;5.326;2022-11-20T19:35:41;42.33;;;31.30;;
45402;SDS011;47427;51.976;5.326;2022-11-20T19:39:03;45.15;;;30.85;;
45402;SDS011;47427;51.976;5.326;2022-11-20T19:42:27;41.60;;;29.52;;
45402;SDS011;47427;51.976;5.326;2022-11-20T19:45:48;42.50;;;31.52;;
45402;SDS011;47427;51.976;5.326;2022-11-20T19:49:11;42.55;;;30.67;;
45402;SDS011;47427;51.976;5.326;2022-11-20T19:52:35;42.78;;;30.83;;
45402;SDS011;47427;51.976;5.326;2022-11-20T19:55:56;36.05;;;28.30;;
45402;SDS011;47427;51.976;5.326;2022-11-20T19:59:20;42.30;;;30.65;;
45402;SDS011;47427;51.976;5.326;2022-11-20T20:02:41;39.60;;;28.55;;
45402;SDS011;47427;51.976;5.326;2022-11-20T20:06:03;41.10;;;29.83;;
45402;SDS011;47427;51.976;5.326;2022-11-20T20:09:33;43.38;;;30.55;;
45402;SDS011;47427;51.976;5.326;2022-11-20T20:12:54;54.20;;;34.42;;
45402;SDS011;47427;51.976;5.326;2022-11-20T20:16:18;41.95;;;30.98;;
45402;SDS011;47427;51.976;5.326;2022-11-20T20:19:42;43.65;;;31.15;;
45402;SDS011;47427;51.976;5.326;2022-11-20T20:23:03;40.92;;;29.50;;
45402;SDS011;47427;51.976;5.326;2022-11-20T20:26:28;41.45;;;30.08;;
45402;SDS011;47427;51.976;5.326;2022-11-20T20:29:50;39.15;;;28.40;;
45402;SDS011;47427;51.976;5.326;2022-11-20T20:33:37;43.15;;;30.38;;
45402;SDS011;47427;51.976;5.326;2022-11-20T20:37:00;51.53;;;35.28;;
45402;SDS011;47427;51.976;5.326;2022-11-20T20:40:23;47.25;;;31.27;;
45402;SDS011;47427;51.976;5.326;2022-11-20T20:43:45;38.78;;;28.70;;
45402;SDS011;47427;51.976;5.326;2022-11-20T20:47:29;43.20;;;31.20;;
45402;SDS011;47427;51.976;5.326;2022-11-20T20:50:59;46.90;;;32.47;;
45402;SDS011;47427;51.976;5.326;2022-11-20T20:54:22;42.20;;;31.75;;
45402;SDS011;47427;51.976;5.326;2022-11-20T20:57:44;44.10;;;31.27;;
45402;SDS011;47427;51.976;5.326;2022-11-20T21:01:07;41.70;;;30.73;;
45402;SDS011;47427;51.976;5.326;2022-11-20T21:04:31;51.70;;;34.78;;
45402;SDS011;47427;51.976;5.326;2022-11-20T21:08:13;44.58;;;33.08;;
45402;SDS011;47427;51.976;5.326;2022-11-20T21:11:41;44.83;;;32.03;;
45402;SDS011;47427;51.976;5.326;2022-11-20T21:15:02;44.85;;;31.65;;
45402;SDS011;47427;51.976;5.326;2022-11-20T21:18:24;41.60;;;29.60;;
45402;SDS011;47427;51.976;5.326;2022-11-20T21:21:46;42.85;;;30.67;;